首页
METAR-TAF:

METAR-TAF

机场 :

Witham Field

Stuart, 佛罗里达州, 美国

纬度: 27-10-54N, 经度: 080-13-16W, 海拔: 6米

当前天气观测

该预报发布于27分钟前的02:55 UTC
风速5节,风向
温度 27°C
湿度 79%
气压 1019 hPa
能見度: 16.1公里
天空无云

METAR: KSUA 220255Z AUTO 10005KT 10SM CLR 27/23 A3009 RMK AO2

时间: 23:22 (03:22 UTC)

预报

该预报发布于3小时和47分钟前的23:35 UTC
预报有效从22日的 00点(UTC)到 22日的 24点(UTC)
风速9节,风向东转东南
能見度: 10公里
少量云层高于3500英尺
散云层高于25000英尺
从 22日的 0400点(UTC)
风速3节,风向多变
能見度: 10公里
散云层高于25000英尺
从 22日的 1400点(UTC)
风速6节,风向东转东南
能見度: 10公里
散云层高于3000英尺
散云层高于25000英尺
从 22日的 1700点(UTC)
风速11节,风向
能見度: 10公里
散云层高于3500英尺
多云层高于25000英尺

TAF: KSUA 212335Z 2200/2224 11009KT P6SM FEW035 SCT250 FM220400 VRB03KT P6SM SCT250 FM221400 11006KT P6SM SCT030 SCT250 FM221700 08011KT P6SM SCT035 BKN250

超过4000个机场的气象观测和天气预报(METAR&TAF报告)。

可查询的气象台以黄色和红色小点在地图上表示。

将鼠标移到小点上方,可查看气象台名称。

然后点击查看天气观测和预报。

如需切换地图:点击带黑十字的绿色按钮放大地图;点击带横线的绿色按钮缩小地图;或者点击绿色箭头查看邻近地区的地图。


METAR-TAF: